Airport View

Enter AWOS ICAO identifier for current METAR.

ex. KFNL

KEHA 120515Z AUTO 23020G25KT 10SM CLR 08/03 A2996 RMK AO2 T00820025

12 Dec 2019 05:34

Frequency: 118.025

Phone: 620-697-4973

Other Area AWOS: KGUY - KHQG - KJHN - KSPD

TAF KGUY 112320Z 1200/1224 18016KT P6SM SCT250 FM120200 19018G27KT P6SM SCT250 WS020/21045KT FM120400 20018G27KT P6SM SCT200 WS020/22045KT FM120700 21015KT P6SM SCT250